sensor_id;sensor_type;location;lat;lon;timestamp;P1;durP1;ratioP1;P2;durP2;ratioP2
51724;SDS011;37801;53.224;6.552;2023-04-15T00:01:36;9.30;;;4.78;;
51724;SDS011;37801;53.224;6.552;2023-04-15T00:04:03;10.65;;;4.43;;
51724;SDS011;37801;53.224;6.552;2023-04-15T00:06:29;11.48;;;4.95;;
51724;SDS011;37801;53.224;6.552;2023-04-15T00:08:55;7.22;;;4.25;;
51724;SDS011;37801;53.224;6.552;2023-04-15T00:11:21;9.25;;;4.30;;
51724;SDS011;37801;53.224;6.552;2023-04-15T00:13:48;12.20;;;5.18;;
51724;SDS011;37801;53.224;6.552;2023-04-15T00:16:14;7.95;;;4.60;;
51724;SDS011;37801;53.224;6.552;2023-04-15T00:18:40;9.45;;;5.07;;
51724;SDS011;37801;53.224;6.552;2023-04-15T00:21:07;8.07;;;5.05;;
51724;SDS011;37801;53.224;6.552;2023-04-15T00:23:33;12.98;;;5.13;;
51724;SDS011;37801;53.224;6.552;2023-04-15T00:26:00;9.82;;;5.97;;
51724;SDS011;37801;53.224;6.552;2023-04-15T00:28:27;11.88;;;5.30;;
51724;SDS011;37801;53.224;6.552;2023-04-15T00:30:53;8.85;;;5.60;;
51724;SDS011;37801;53.224;6.552;2023-04-15T00:33:19;10.52;;;5.45;;
51724;SDS011;37801;53.224;6.552;2023-04-15T00:35:45;9.43;;;5.28;;
51724;SDS011;37801;53.224;6.552;2023-04-15T00:38:12;10.27;;;5.70;;
51724;SDS011;37801;53.224;6.552;2023-04-15T00:40:38;13.23;;;5.82;;
51724;SDS011;37801;53.224;6.552;2023-04-15T00:43:05;11.20;;;5.75;;
51724;SDS011;37801;53.224;6.552;2023-04-15T00:45:31;10.38;;;5.80;;
51724;SDS011;37801;53.224;6.552;2023-04-15T00:47:57;11.25;;;5.93;;
51724;SDS011;37801;53.224;6.552;2023-04-15T00:50:24;10.90;;;5.88;;
51724;SDS011;37801;53.224;6.552;2023-04-15T00:52:50;11.05;;;5.97;;
51724;SDS011;37801;53.224;6.552;2023-04-15T00:55:16;9.55;;;6.35;;
51724;SDS011;37801;53.224;6.552;2023-04-15T00:57:43;10.07;;;5.95;;
51724;SDS011;37801;53.224;6.552;2023-04-15T01:00:09;12.68;;;6.68;;
51724;SDS011;37801;53.224;6.552;2023-04-15T01:02:36;10.38;;;6.20;;
51724;SDS011;37801;53.224;6.552;2023-04-15T01:05:03;11.40;;;6.43;;
51724;SDS011;37801;53.224;6.552;2023-04-15T01:07:30;12.20;;;6.32;;
51724;SDS011;37801;53.224;6.552;2023-04-15T01:09:56;9.23;;;5.88;;
51724;SDS011;37801;53.224;6.552;2023-04-15T01:12:22;10.50;;;6.07;;
51724;SDS011;37801;53.224;6.552;2023-04-15T01:14:49;10.98;;;6.47;;
51724;SDS011;37801;53.224;6.552;2023-04-15T01:17:16;10.30;;;5.95;;
51724;SDS011;37801;53.224;6.552;2023-04-15T01:19:43;10.90;;;6.20;;
51724;SDS011;37801;53.224;6.552;2023-04-15T01:22:09;10.18;;;6.30;;
51724;SDS011;37801;53.224;6.552;2023-04-15T01:24:35;12.60;;;6.25;;
51724;SDS011;37801;53.224;6.552;2023-04-15T01:27:01;10.80;;;6.78;;
51724;SDS011;37801;53.224;6.552;2023-04-15T01:29:29;11.77;;;6.53;;
51724;SDS011;37801;53.224;6.552;2023-04-15T01:31:55;9.77;;;6.35;;
51724;SDS011;37801;53.224;6.552;2023-04-15T01:34:22;10.40;;;6.03;;
51724;SDS011;37801;53.224;6.552;2023-04-15T01:36:48;9.32;;;5.93;;
51724;SDS011;37801;53.224;6.552;2023-04-15T01:39:14;11.70;;;6.47;;
51724;SDS011;37801;53.224;6.552;2023-04-15T01:41:40;11.77;;;7.00;;
51724;SDS011;37801;53.224;6.552;2023-04-15T01:44:06;11.93;;;7.10;;
51724;SDS011;37801;53.224;6.552;2023-04-15T01:46:33;12.48;;;7.20;;
51724;SDS011;37801;53.224;6.552;2023-04-15T01:48:59;10.60;;;6.57;;
51724;SDS011;37801;53.224;6.552;2023-04-15T01:51:26;11.80;;;6.97;;
51724;SDS011;37801;53.224;6.552;2023-04-15T01:53:52;13.32;;;7.55;;
51724;SDS011;37801;53.224;6.552;2023-04-15T01:56:21;11.80;;;6.72;;
51724;SDS011;37801;53.224;6.552;2023-04-15T01:58:51;13.82;;;6.93;;
51724;SDS011;37801;53.224;6.552;2023-04-15T02:01:17;10.18;;;6.97;;
51724;SDS011;37801;53.224;6.552;2023-04-15T02:03:44;12.70;;;7.50;;
51724;SDS011;37801;53.224;6.552;2023-04-15T02:06:10;10.85;;;7.32;;
51724;SDS011;37801;53.224;6.552;2023-04-15T02:08:37;13.85;;;8.18;;
51724;SDS011;37801;53.224;6.552;2023-04-15T02:11:03;12.27;;;8.02;;
51724;SDS011;37801;53.224;6.552;2023-04-15T02:13:29;12.40;;;8.07;;
51724;SDS011;37801;53.224;6.552;2023-04-15T02:15:55;11.70;;;7.65;;
51724;SDS011;37801;53.224;6.552;2023-04-15T02:18:21;11.18;;;7.85;;
51724;SDS011;37801;53.224;6.552;2023-04-15T02:20:49;12.38;;;7.53;;
51724;SDS011;37801;53.224;6.552;2023-04-15T02:23:16;13.60;;;7.43;;
51724;SDS011;37801;53.224;6.552;2023-04-15T02:25:42;13.50;;;7.93;;
51724;SDS011;37801;53.224;6.552;2023-04-15T02:28:08;14.70;;;8.52;;
51724;SDS011;37801;53.224;6.552;2023-04-15T02:30:34;12.57;;;8.02;;
51724;SDS011;37801;53.224;6.552;2023-04-15T02:33:00;11.27;;;7.35;;
51724;SDS011;37801;53.224;6.552;2023-04-15T02:35:27;12.35;;;8.10;;
51724;SDS011;37801;53.224;6.552;2023-04-15T02:37:53;11.70;;;7.65;;
51724;SDS011;37801;53.224;6.552;2023-04-15T02:40:19;11.43;;;7.78;;
51724;SDS011;37801;53.224;6.552;2023-04-15T02:42:45;12.30;;;7.78;;
51724;SDS011;37801;53.224;6.552;2023-04-15T02:45:12;14.38;;;8.65;;
51724;SDS011;37801;53.224;6.552;2023-04-15T02:47:38;13.00;;;7.68;;
51724;SDS011;37801;53.224;6.552;2023-04-15T02:50:08;12.40;;;8.55;;
51724;SDS011;37801;53.224;6.552;2023-04-15T02:52:40;12.15;;;8.13;;
51724;SDS011;37801;53.224;6.552;2023-04-15T02:55:07;12.38;;;7.75;;
51724;SDS011;37801;53.224;6.552;2023-04-15T02:57:33;13.65;;;8.50;;
51724;SDS011;37801;53.224;6.552;2023-04-15T03:00:02;14.35;;;8.57;;
51724;SDS011;37801;53.224;6.552;2023-04-15T03:02:35;13.27;;;8.13;;
51724;SDS011;37801;53.224;6.552;2023-04-15T03:05:02;13.48;;;8.93;;
51724;SDS011;37801;53.224;6.552;2023-04-15T03:07:28;11.40;;;8.20;;
51724;SDS011;37801;53.224;6.552;2023-04-15T03:09:54;14.93;;;9.43;;
51724;SDS011;37801;53.224;6.552;2023-04-15T03:12:21;13.40;;;8.93;;
51724;SDS011;37801;53.224;6.552;2023-04-15T03:14:47;14.13;;;8.80;;
51724;SDS011;37801;53.224;6.552;2023-04-15T03:17:13;13.88;;;9.55;;
51724;SDS011;37801;53.224;6.552;2023-04-15T03:19:39;15.93;;;9.00;;
51724;SDS011;37801;53.224;6.552;2023-04-15T03:22:05;12.57;;;9.25;;
51724;SDS011;37801;53.224;6.552;2023-04-15T03:24:32;13.02;;;8.82;;
51724;SDS011;37801;53.224;6.552;2023-04-15T03:26:58;14.95;;;9.20;;
51724;SDS011;37801;53.224;6.552;2023-04-15T03:29:25;18.27;;;10.35;;
51724;SDS011;37801;53.224;6.552;2023-04-15T03:31:51;13.63;;;9.60;;
51724;SDS011;37801;53.224;6.552;2023-04-15T03:34:18;15.85;;;9.25;;
51724;SDS011;37801;53.224;6.552;2023-04-15T03:36:44;14.30;;;9.70;;
51724;SDS011;37801;53.224;6.552;2023-04-15T03:39:11;15.75;;;10.68;;
51724;SDS011;37801;53.224;6.552;2023-04-15T03:41:37;14.85;;;9.65;;
51724;SDS011;37801;53.224;6.552;2023-04-15T03:44:03;13.27;;;9.60;;
51724;SDS011;37801;53.224;6.552;2023-04-15T03:46:29;15.35;;;10.45;;
51724;SDS011;37801;53.224;6.552;2023-04-15T03:48:56;13.85;;;9.70;;
51724;SDS011;37801;53.224;6.552;2023-04-15T03:51:22;19.15;;;10.85;;
51724;SDS011;37801;53.224;6.552;2023-04-15T03:53:48;14.40;;;10.52;;
51724;SDS011;37801;53.224;6.552;2023-04-15T03:56:14;16.02;;;10.95;;
51724;SDS011;37801;53.224;6.552;2023-04-15T03:58:40;16.38;;;10.90;;
51724;SDS011;37801;53.224;6.552;2023-04-15T04:01:06;15.40;;;10.65;;
51724;SDS011;37801;53.224;6.552;2023-04-15T04:03:33;16.35;;;10.55;;
51724;SDS011;37801;53.224;6.552;2023-04-15T04:05:59;16.73;;;10.77;;
51724;SDS011;37801;53.224;6.552;2023-04-15T04:08:25;16.38;;;11.05;;
51724;SDS011;37801;53.224;6.552;2023-04-15T04:10:51;16.45;;;11.05;;
51724;SDS011;37801;53.224;6.552;2023-04-15T04:13:17;17.02;;;11.82;;
51724;SDS011;37801;53.224;6.552;2023-04-15T04:15:43;15.48;;;10.20;;
51724;SDS011;37801;53.224;6.552;2023-04-15T04:18:10;17.35;;;10.85;;
51724;SDS011;37801;53.224;6.552;2023-04-15T04:20:36;15.80;;;11.32;;
51724;SDS011;37801;53.224;6.552;2023-04-15T04:23:02;16.48;;;11.35;;
51724;SDS011;37801;53.224;6.552;2023-04-15T04:25:28;17.20;;;11.18;;
51724;SDS011;37801;53.224;6.552;2023-04-15T04:27:55;17.85;;;10.65;;
51724;SDS011;37801;53.224;6.552;2023-04-15T04:30:21;15.50;;;11.05;;
51724;SDS011;37801;53.224;6.552;2023-04-15T04:32:48;15.23;;;10.40;;
51724;SDS011;37801;53.224;6.552;2023-04-15T04:35:15;14.40;;;10.07;;
51724;SDS011;37801;53.224;6.552;2023-04-15T04:37:41;16.08;;;10.45;;
51724;SDS011;37801;53.224;6.552;2023-04-15T04:40:07;15.43;;;10.30;;
51724;SDS011;37801;53.224;6.552;2023-04-15T04:42:34;13.68;;;9.98;;
51724;SDS011;37801;53.224;6.552;2023-04-15T04:45:00;15.38;;;10.40;;
51724;SDS011;37801;53.224;6.552;2023-04-15T04:47:26;12.95;;;9.07;;
51724;SDS011;37801;53.224;6.552;2023-04-15T04:49:54;14.90;;;9.70;;
51724;SDS011;37801;53.224;6.552;2023-04-15T04:52:20;13.68;;;9.68;;
51724;SDS011;37801;53.224;6.552;2023-04-15T04:54:46;14.00;;;10.07;;
51724;SDS011;37801;53.224;6.552;2023-04-15T04:57:12;14.77;;;9.68;;
51724;SDS011;37801;53.224;6.552;2023-04-15T04:59:38;15.40;;;9.82;;
51724;SDS011;37801;53.224;6.552;2023-04-15T05:02:05;15.02;;;9.60;;
51724;SDS011;37801;53.224;6.552;2023-04-15T05:04:31;15.05;;;10.23;;
51724;SDS011;37801;53.224;6.552;2023-04-15T05:06:58;14.68;;;9.57;;
51724;SDS011;37801;53.224;6.552;2023-04-15T05:09:24;14.68;;;9.98;;
51724;SDS011;37801;53.224;6.552;2023-04-15T05:11:50;15.85;;;10.45;;
51724;SDS011;37801;53.224;6.552;2023-04-15T05:14:17;14.95;;;9.95;;
51724;SDS011;37801;53.224;6.552;2023-04-15T05:16:43;14.95;;;9.93;;
51724;SDS011;37801;53.224;6.552;2023-04-15T05:19:09;14.38;;;9.93;;
51724;SDS011;37801;53.224;6.552;2023-04-15T05:21:35;15.32;;;10.20;;
51724;SDS011;37801;53.224;6.552;2023-04-15T05:24:01;14.93;;;10.30;;
51724;SDS011;37801;53.224;6.552;2023-04-15T05:26:28;15.27;;;10.68;;
51724;SDS011;37801;53.224;6.552;2023-04-15T05:28:55;16.05;;;10.85;;
51724;SDS011;37801;53.224;6.552;2023-04-15T05:31:22;13.63;;;9.65;;
51724;SDS011;37801;53.224;6.552;2023-04-15T05:33:48;14.60;;;9.85;;
51724;SDS011;37801;53.224;6.552;2023-04-15T05:36:14;15.88;;;10.50;;
51724;SDS011;37801;53.224;6.552;2023-04-15T05:38:40;15.10;;;9.70;;
51724;SDS011;37801;53.224;6.552;2023-04-15T05:41:06;13.00;;;9.45;;
51724;SDS011;37801;53.224;6.552;2023-04-15T05:43:33;13.70;;;9.40;;
51724;SDS011;37801;53.224;6.552;2023-04-15T05:45:59;13.32;;;9.45;;
51724;SDS011;37801;53.224;6.552;2023-04-15T05:48:25;15.63;;;9.52;;
51724;SDS011;37801;53.224;6.552;2023-04-15T05:50:51;14.48;;;10.05;;
51724;SDS011;37801;53.224;6.552;2023-04-15T05:53:18;14.95;;;10.23;;
51724;SDS011;37801;53.224;6.552;2023-04-15T05:55:44;14.93;;;10.23;;
51724;SDS011;37801;53.224;6.552;2023-04-15T05:58:10;15.98;;;10.30;;
51724;SDS011;37801;53.224;6.552;2023-04-15T06:00:37;14.68;;;9.95;;
51724;SDS011;37801;53.224;6.552;2023-04-15T06:03:03;15.65;;;10.45;;
51724;SDS011;37801;53.224;6.552;2023-04-15T06:05:30;16.92;;;10.70;;
51724;SDS011;37801;53.224;6.552;2023-04-15T06:07:56;15.98;;;10.65;;
51724;SDS011;37801;53.224;6.552;2023-04-15T06:10:22;14.75;;;10.50;;
51724;SDS011;37801;53.224;6.552;2023-04-15T06:12:48;15.98;;;10.30;;
51724;SDS011;37801;53.224;6.552;2023-04-15T06:15:14;15.15;;;10.27;;
51724;SDS011;37801;53.224;6.552;2023-04-15T06:17:41;18.77;;;11.48;;
51724;SDS011;37801;53.224;6.552;2023-04-15T06:20:07;15.95;;;10.52;;
51724;SDS011;37801;53.224;6.552;2023-04-15T06:22:33;18.58;;;10.50;;
51724;SDS011;37801;53.224;6.552;2023-04-15T06:24:59;14.10;;;9.90;;
51724;SDS011;37801;53.224;6.552;2023-04-15T06:27:26;15.90;;;9.98;;
51724;SDS011;37801;53.224;6.552;2023-04-15T06:29:52;14.73;;;9.73;;
51724;SDS011;37801;53.224;6.552;2023-04-15T06:32:18;16.10;;;9.93;;
51724;SDS011;37801;53.224;6.552;2023-04-15T06:34:44;13.70;;;9.75;;
51724;SDS011;37801;53.224;6.552;2023-04-15T06:37:10;17.35;;;10.48;;
51724;SDS011;37801;53.224;6.552;2023-04-15T06:39:40;16.92;;;10.43;;
51724;SDS011;37801;53.224;6.552;2023-04-15T06:42:07;13.43;;;9.55;;
51724;SDS011;37801;53.224;6.552;2023-04-15T06:44:33;14.63;;;9.80;;
51724;SDS011;37801;53.224;6.552;2023-04-15T06:47:01;16.38;;;9.90;;
51724;SDS011;37801;53.224;6.552;2023-04-15T06:49:27;16.48;;;10.40;;
51724;SDS011;37801;53.224;6.552;2023-04-15T06:51:53;16.48;;;10.45;;
51724;SDS011;37801;53.224;6.552;2023-04-15T06:54:19;14.93;;;8.95;;
51724;SDS011;37801;53.224;6.552;2023-04-15T06:56:45;15.40;;;9.57;;
51724;SDS011;37801;53.224;6.552;2023-04-15T06:59:12;15.15;;;10.05;;
51724;SDS011;37801;53.224;6.552;2023-04-15T07:01:39;16.75;;;10.15;;
51724;SDS011;37801;53.224;6.552;2023-04-15T07:04:06;15.13;;;9.05;;
51724;SDS011;37801;53.224;6.552;2023-04-15T07:06:32;14.07;;;9.70;;
51724;SDS011;37801;53.224;6.552;2023-04-15T07:08:59;13.13;;;9.05;;
51724;SDS011;37801;53.224;6.552;2023-04-15T07:11:26;16.75;;;9.15;;
51724;SDS011;37801;53.224;6.552;2023-04-15T07:13:53;16.25;;;10.32;;
51724;SDS011;37801;53.224;6.552;2023-04-15T07:16:19;16.63;;;9.15;;
51724;SDS011;37801;53.224;6.552;2023-04-15T07:18:45;15.13;;;8.77;;
51724;SDS011;37801;53.224;6.552;2023-04-15T07:21:12;17.27;;;9.13;;
51724;SDS011;37801;53.224;6.552;2023-04-15T07:23:38;13.85;;;7.50;;
51724;SDS011;37801;53.224;6.552;2023-04-15T07:26:04;11.73;;;7.43;;
51724;SDS011;37801;53.224;6.552;2023-04-15T07:28:30;12.02;;;8.30;;
51724;SDS011;37801;53.224;6.552;2023-04-15T07:30:56;14.82;;;7.07;;
51724;SDS011;37801;53.224;6.552;2023-04-15T07:33:23;11.68;;;7.15;;
51724;SDS011;37801;53.224;6.552;2023-04-15T07:35:49;10.45;;;6.47;;
51724;SDS011;37801;53.224;6.552;2023-04-15T07:38:15;12.38;;;7.57;;
51724;SDS011;37801;53.224;6.552;2023-04-15T07:40:42;11.15;;;6.85;;
51724;SDS011;37801;53.224;6.552;2023-04-15T07:43:08;10.18;;;6.70;;
51724;SDS011;37801;53.224;6.552;2023-04-15T07:45:34;11.75;;;7.10;;
51724;SDS011;37801;53.224;6.552;2023-04-15T07:48:01;12.57;;;7.47;;
51724;SDS011;37801;53.224;6.552;2023-04-15T07:50:27;12.55;;;6.82;;
51724;SDS011;37801;53.224;6.552;2023-04-15T07:52:53;12.60;;;6.50;;
51724;SDS011;37801;53.224;6.552;2023-04-15T07:55:20;11.38;;;7.20;;
51724;SDS011;37801;53.224;6.552;2023-04-15T07:57:47;12.30;;;7.32;;
51724;SDS011;37801;53.224;6.552;2023-04-15T08:00:14;12.48;;;7.07;;
51724;SDS011;37801;53.224;6.552;2023-04-15T08:02:40;12.55;;;6.40;;
51724;SDS011;37801;53.224;6.552;2023-04-15T08:05:11;10.23;;;6.18;;
51724;SDS011;37801;53.224;6.552;2023-04-15T08:07:38;13.07;;;6.70;;
51724;SDS011;37801;53.224;6.552;2023-04-15T08:10:04;11.40;;;6.05;;
51724;SDS011;37801;53.224;6.552;2023-04-15T08:12:31;9.57;;;5.60;;
51724;SDS011;37801;53.224;6.552;2023-04-15T08:14:57;9.60;;;5.65;;
51724;SDS011;37801;53.224;6.552;2023-04-15T08:17:23;9.50;;;5.70;;
51724;SDS011;37801;53.224;6.552;2023-04-15T08:19:50;8.63;;;4.72;;
51724;SDS011;37801;53.224;6.552;2023-04-15T08:22:17;9.77;;;4.97;;
51724;SDS011;37801;53.224;6.552;2023-04-15T08:24:43;9.07;;;5.13;;
51724;SDS011;37801;53.224;6.552;2023-04-15T08:27:10;8.30;;;5.32;;
51724;SDS011;37801;53.224;6.552;2023-04-15T08:29:36;10.18;;;4.20;;
51724;SDS011;37801;53.224;6.552;2023-04-15T08:32:03;8.73;;;4.20;;
51724;SDS011;37801;53.224;6.552;2023-04-15T08:34:29;10.38;;;4.28;;
51724;SDS011;37801;53.224;6.552;2023-04-15T08:36:56;6.60;;;4.10;;
51724;SDS011;37801;53.224;6.552;2023-04-15T08:39:22;9.35;;;4.60;;
51724;SDS011;37801;53.224;6.552;2023-04-15T08:41:55;8.45;;;3.88;;
51724;SDS011;37801;53.224;6.552;2023-04-15T08:44:23;5.38;;;3.35;;
51724;SDS011;37801;53.224;6.552;2023-04-15T08:46:52;8.88;;;3.58;;
51724;SDS011;37801;53.224;6.552;2023-04-15T08:49:19;5.93;;;3.10;;
51724;SDS011;37801;53.224;6.552;2023-04-15T08:51:47;8.15;;;2.90;;
51724;SDS011;37801;53.224;6.552;2023-04-15T08:54:13;5.88;;;2.85;;
51724;SDS011;37801;53.224;6.552;2023-04-15T08:56:39;8.15;;;2.75;;
51724;SDS011;37801;53.224;6.552;2023-04-15T08:59:06;5.18;;;2.58;;
51724;SDS011;37801;53.224;6.552;2023-04-15T09:01:32;5.70;;;2.63;;
51724;SDS011;37801;53.224;6.552;2023-04-15T09:03:59;7.32;;;2.65;;
51724;SDS011;37801;53.224;6.552;2023-04-15T09:06:28;8.32;;;2.97;;
51724;SDS011;37801;53.224;6.552;2023-04-15T09:08:54;7.93;;;2.65;;
51724;SDS011;37801;53.224;6.552;2023-04-15T09:11:20;7.35;;;2.45;;
51724;SDS011;37801;53.224;6.552;2023-04-15T09:13:47;6.47;;;2.63;;
51724;SDS011;37801;53.224;6.552;2023-04-15T09:16:13;5.07;;;2.50;;
51724;SDS011;37801;53.224;6.552;2023-04-15T09:18:39;4.90;;;2.55;;
51724;SDS011;37801;53.224;6.552;2023-04-15T09:23:39;3.45;;;2.00;;
51724;SDS011;37801;53.224;6.552;2023-04-15T09:26:06;6.45;;;2.30;;
51724;SDS011;37801;53.224;6.552;2023-04-15T09:28:33;5.90;;;2.33;;
51724;SDS011;37801;53.224;6.552;2023-04-15T09:31:05;5.68;;;2.10;;
51724;SDS011;37801;53.224;6.552;2023-04-15T09:33:31;5.57;;;2.28;;
51724;SDS011;37801;53.224;6.552;2023-04-15T09:36:01;7.90;;;1.98;;
51724;SDS011;37801;53.224;6.552;2023-04-15T09:38:29;6.45;;;1.98;;
51724;SDS011;37801;53.224;6.552;2023-04-15T09:40:56;5.28;;;1.92;;
51724;SDS011;37801;53.224;6.552;2023-04-15T09:43:27;5.72;;;2.42;;
51724;SDS011;37801;53.224;6.552;2023-04-15T09:46:02;6.45;;;2.28;;
51724;SDS011;37801;53.224;6.552;2023-04-15T09:48:28;5.85;;;2.58;;
51724;SDS011;37801;53.224;6.552;2023-04-15T09:50:58;4.50;;;2.10;;
51724;SDS011;37801;53.224;6.552;2023-04-15T09:53:25;5.32;;;1.67;;
51724;SDS011;37801;53.224;6.552;2023-04-15T09:55:53;3.20;;;1.50;;
51724;SDS011;37801;53.224;6.552;2023-04-15T09:58:20;3.17;;;1.45;;
51724;SDS011;37801;53.224;6.552;2023-04-15T10:00:47;4.10;;;1.75;;
51724;SDS011;37801;53.224;6.552;2023-04-15T10:03:19;3.38;;;1.33;;
51724;SDS011;37801;53.224;6.552;2023-04-15T10:05:46;2.97;;;1.40;;
51724;SDS011;37801;53.224;6.552;2023-04-15T10:08:14;3.92;;;1.38;;
51724;SDS011;37801;53.224;6.552;2023-04-15T10:10:40;5.25;;;1.50;;
51724;SDS011;37801;53.224;6.552;2023-04-15T10:13:07;2.63;;;1.40;;
51724;SDS011;37801;53.224;6.552;2023-04-15T10:15:33;3.88;;;1.58;;
51724;SDS011;37801;53.224;6.552;2023-04-15T10:18:00;4.57;;;1.90;;
51724;SDS011;37801;53.224;6.552;2023-04-15T10:20:27;5.35;;;2.10;;
51724;SDS011;37801;53.224;6.552;2023-04-15T10:22:54;6.85;;;1.80;;
51724;SDS011;37801;53.224;6.552;2023-04-15T10:25:21;6.10;;;1.88;;
51724;SDS011;37801;53.224;6.552;2023-04-15T10:27:48;5.63;;;1.80;;
51724;SDS011;37801;53.224;6.552;2023-04-15T10:30:17;7.38;;;1.80;;
51724;SDS011;37801;53.224;6.552;2023-04-15T10:32:43;7.35;;;2.20;;
51724;SDS011;37801;53.224;6.552;2023-04-15T10:35:09;6.15;;;2.25;;
51724;SDS011;37801;53.224;6.552;2023-04-15T10:37:36;5.25;;;2.42;;
51724;SDS011;37801;53.224;6.552;2023-04-15T10:42:48;8.02;;;2.38;;
51724;SDS011;37801;53.224;6.552;2023-04-15T10:45:17;5.10;;;2.33;;
51724;SDS011;37801;53.224;6.552;2023-04-15T10:47:44;6.35;;;2.20;;
51724;SDS011;37801;53.224;6.552;2023-04-15T10:50:10;4.47;;;2.00;;
51724;SDS011;37801;53.224;6.552;2023-04-15T10:52:38;8.68;;;2.60;;
51724;SDS011;37801;53.224;6.552;2023-04-15T10:55:15;5.03;;;2.10;;
51724;SDS011;37801;53.224;6.552;2023-04-15T10:57:43;5.32;;;2.20;;
51724;SDS011;37801;53.224;6.552;2023-04-15T11:00:13;7.32;;;2.33;;
51724;SDS011;37801;53.224;6.552;2023-04-15T11:02:44;6.97;;;2.25;;
51724;SDS011;37801;53.224;6.552;2023-04-15T11:05:11;10.52;;;2.70;;
51724;SDS011;37801;53.224;6.552;2023-04-15T11:07:38;9.27;;;2.47;;
51724;SDS011;37801;53.224;6.552;2023-04-15T11:12:45;6.93;;;2.42;;
51724;SDS011;37801;53.224;6.552;2023-04-15T11:17:50;7.53;;;2.30;;
51724;SDS011;37801;53.224;6.552;2023-04-15T11:20:16;5.88;;;1.70;;
51724;SDS011;37801;53.224;6.552;2023-04-15T11:22:46;5.20;;;1.88;;
51724;SDS011;37801;53.224;6.552;2023-04-15T11:25:26;8.45;;;2.20;;
51724;SDS011;37801;53.224;6.552;2023-04-15T11:27:52;6.28;;;2.38;;
51724;SDS011;37801;53.224;6.552;2023-04-15T11:30:23;12.80;;;2.85;;
51724;SDS011;37801;53.224;6.552;2023-04-15T11:32:50;10.05;;;2.63;;
51724;SDS011;37801;53.224;6.552;2023-04-15T11:35:17;8.68;;;1.90;;
51724;SDS011;37801;53.224;6.552;2023-04-15T11:37:43;7.18;;;1.95;;
51724;SDS011;37801;53.224;6.552;2023-04-15T11:40:10;8.85;;;2.17;;
51724;SDS011;37801;53.224;6.552;2023-04-15T11:42:36;11.43;;;2.40;;
51724;SDS011;37801;53.224;6.552;2023-04-15T11:45:09;10.20;;;2.50;;
51724;SDS011;37801;53.224;6.552;2023-04-15T11:47:36;8.88;;;2.80;;
51724;SDS011;37801;53.224;6.552;2023-04-15T11:50:17;11.02;;;2.85;;
51724;SDS011;37801;53.224;6.552;2023-04-15T11:52:57;10.05;;;2.80;;
51724;SDS011;37801;53.224;6.552;2023-04-15T11:55:23;8.88;;;2.42;;
51724;SDS011;37801;53.224;6.552;2023-04-15T11:57:50;7.38;;;2.22;;
51724;SDS011;37801;53.224;6.552;2023-04-15T12:00:16;7.80;;;2.20;;
51724;SDS011;37801;53.224;6.552;2023-04-15T12:02:44;7.65;;;2.60;;
51724;SDS011;37801;53.224;6.552;2023-04-15T12:05:11;12.05;;;4.50;;
51724;SDS011;37801;53.224;6.552;2023-04-15T12:07:56;10.15;;;3.50;;
51724;SDS011;37801;53.224;6.552;2023-04-15T12:10:23;8.85;;;2.42;;
51724;SDS011;37801;53.224;6.552;2023-04-15T12:12:51;8.80;;;3.92;;
51724;SDS011;37801;53.224;6.552;2023-04-15T12:15:20;9.88;;;2.50;;
51724;SDS011;37801;53.224;6.552;2023-04-15T12:17:48;8.18;;;2.20;;
51724;SDS011;37801;53.224;6.552;2023-04-15T12:20:19;9.80;;;1.85;;
51724;SDS011;37801;53.224;6.552;2023-04-15T12:22:46;9.70;;;2.78;;
51724;SDS011;37801;53.224;6.552;2023-04-15T12:25:12;8.32;;;2.03;;
51724;SDS011;37801;53.224;6.552;2023-04-15T12:27:38;10.45;;;2.25;;
51724;SDS011;37801;53.224;6.552;2023-04-15T12:30:05;8.65;;;1.50;;
51724;SDS011;37801;53.224;6.552;2023-04-15T12:32:35;5.78;;;1.73;;
51724;SDS011;37801;53.224;6.552;2023-04-15T12:35:01;16.13;;;2.47;;
51724;SDS011;37801;53.224;6.552;2023-04-15T12:37:27;10.73;;;2.20;;
51724;SDS011;37801;53.224;6.552;2023-04-15T12:39:53;9.70;;;1.98;;
51724;SDS011;37801;53.224;6.552;2023-04-15T12:42:19;8.70;;;2.28;;
51724;SDS011;37801;53.224;6.552;2023-04-15T12:44:46;11.00;;;2.20;;
51724;SDS011;37801;53.224;6.552;2023-04-15T12:47:13;7.38;;;1.70;;
51724;SDS011;37801;53.224;6.552;2023-04-15T12:49:39;10.70;;;2.17;;
51724;SDS011;37801;53.224;6.552;2023-04-15T12:52:05;12.75;;;2.97;;
51724;SDS011;37801;53.224;6.552;2023-04-15T12:54:31;13.88;;;2.47;;
51724;SDS011;37801;53.224;6.552;2023-04-15T12:56:58;8.93;;;2.40;;
51724;SDS011;37801;53.224;6.552;2023-04-15T12:59:25;6.57;;;1.73;;
51724;SDS011;37801;53.224;6.552;2023-04-15T13:01:51;8.57;;;2.10;;
51724;SDS011;37801;53.224;6.552;2023-04-15T13:04:17;10.90;;;2.60;;
51724;SDS011;37801;53.224;6.552;2023-04-15T13:06:44;6.25;;;1.98;;
51724;SDS011;37801;53.224;6.552;2023-04-15T13:09:10;7.28;;;2.13;;
51724;SDS011;37801;53.224;6.552;2023-04-15T13:11:36;12.52;;;3.28;;
51724;SDS011;37801;53.224;6.552;2023-04-15T13:14:03;9.13;;;2.30;;
51724;SDS011;37801;53.224;6.552;2023-04-15T13:16:30;12.20;;;2.60;;
51724;SDS011;37801;53.224;6.552;2023-04-15T13:18:57;12.45;;;2.90;;
51724;SDS011;37801;53.224;6.552;2023-04-15T13:21:24;7.90;;;2.22;;
51724;SDS011;37801;53.224;6.552;2023-04-15T13:23:51;9.38;;;2.50;;
51724;SDS011;37801;53.224;6.552;2023-04-15T13:26:17;7.88;;;2.40;;
51724;SDS011;37801;53.224;6.552;2023-04-15T13:28:43;12.20;;;2.75;;
51724;SDS011;37801;53.224;6.552;2023-04-15T13:31:10;8.15;;;1.92;;
51724;SDS011;37801;53.224;6.552;2023-04-15T13:33:36;8.98;;;2.08;;
51724;SDS011;37801;53.224;6.552;2023-04-15T13:36:02;8.20;;;1.75;;
51724;SDS011;37801;53.224;6.552;2023-04-15T13:38:28;7.28;;;1.27;;
51724;SDS011;37801;53.224;6.552;2023-04-15T13:40:55;9.02;;;1.65;;
51724;SDS011;37801;53.224;6.552;2023-04-15T13:43:21;12.18;;;1.88;;
51724;SDS011;37801;53.224;6.552;2023-04-15T13:45:47;12.18;;;2.50;;
51724;SDS011;37801;53.224;6.552;2023-04-15T13:48:13;12.55;;;2.00;;
51724;SDS011;37801;53.224;6.552;2023-04-15T13:50:40;6.72;;;1.60;;
51724;SDS011;37801;53.224;6.552;2023-04-15T13:53:09;7.47;;;1.55;;
51724;SDS011;37801;53.224;6.552;2023-04-15T13:55:35;7.78;;;1.70;;
51724;SDS011;37801;53.224;6.552;2023-04-15T13:58:05;6.75;;;2.30;;
51724;SDS011;37801;53.224;6.552;2023-04-15T14:00:32;10.95;;;4.35;;
51724;SDS011;37801;53.224;6.552;2023-04-15T14:02:58;18.50;;;9.82;;
51724;SDS011;37801;53.224;6.552;2023-04-15T14:05:24;23.00;;;11.77;;
51724;SDS011;37801;53.224;6.552;2023-04-15T14:07:50;31.65;;;18.40;;
51724;SDS011;37801;53.224;6.552;2023-04-15T14:10:16;36.00;;;20.83;;
51724;SDS011;37801;53.224;6.552;2023-04-15T14:12:42;9.10;;;4.43;;
51724;SDS011;37801;53.224;6.552;2023-04-15T14:15:09;11.10;;;2.80;;
51724;SDS011;37801;53.224;6.552;2023-04-15T14:17:35;7.63;;;2.13;;
51724;SDS011;37801;53.224;6.552;2023-04-15T14:20:01;10.57;;;2.72;;
51724;SDS011;37801;53.224;6.552;2023-04-15T14:22:27;8.52;;;2.33;;
51724;SDS011;37801;53.224;6.552;2023-04-15T14:24:53;14.52;;;2.10;;
51724;SDS011;37801;53.224;6.552;2023-04-15T14:27:19;7.32;;;2.28;;
51724;SDS011;37801;53.224;6.552;2023-04-15T14:29:46;13.02;;;1.92;;
51724;SDS011;37801;53.224;6.552;2023-04-15T14:32:12;11.00;;;2.25;;
51724;SDS011;37801;53.224;6.552;2023-04-15T14:34:38;12.18;;;3.25;;
51724;SDS011;37801;53.224;6.552;2023-04-15T14:37:05;15.82;;;2.90;;
51724;SDS011;37801;53.224;6.552;2023-04-15T14:39:31;12.07;;;2.50;;
51724;SDS011;37801;53.224;6.552;2023-04-15T14:41:57;9.85;;;2.13;;
51724;SDS011;37801;53.224;6.552;2023-04-15T14:44:24;8.75;;;2.42;;
51724;SDS011;37801;53.224;6.552;2023-04-15T14:46:50;12.98;;;2.50;;